sensor_id;sensor_type;location;lat;lon;timestamp;temperature;humidity
5461;DHT22;2753;49.196;8.286;2023-06-24T00:02:04;22.00;76.20
5461;DHT22;2753;49.196;8.286;2023-06-24T00:04:29;21.90;76.60
5461;DHT22;2753;49.196;8.286;2023-06-24T00:06:55;21.80;76.90
5461;DHT22;2753;49.196;8.286;2023-06-24T00:09:25;21.80;76.90
5461;DHT22;2753;49.196;8.286;2023-06-24T00:11:50;21.80;76.30
5461;DHT22;2753;49.196;8.286;2023-06-24T00:14:16;21.80;76.70
5461;DHT22;2753;49.196;8.286;2023-06-24T00:16:42;21.80;76.90
5461;DHT22;2753;49.196;8.286;2023-06-24T00:19:07;21.80;77.00
5461;DHT22;2753;49.196;8.286;2023-06-24T00:21:34;21.60;77.40
5461;DHT22;2753;49.196;8.286;2023-06-24T00:24:03;21.60;77.50
5461;DHT22;2753;49.196;8.286;2023-06-24T00:26:30;21.60;77.00
5461;DHT22;2753;49.196;8.286;2023-06-24T00:28:55;21.70;76.80
5461;DHT22;2753;49.196;8.286;2023-06-24T00:31:22;21.70;77.20
5461;DHT22;2753;49.196;8.286;2023-06-24T00:33:48;21.60;77.40
5461;DHT22;2753;49.196;8.286;2023-06-24T00:36:15;21.50;77.60
5461;DHT22;2753;49.196;8.286;2023-06-24T00:38:41;21.40;78.00
5461;DHT22;2753;49.196;8.286;2023-06-24T00:41:07;21.40;77.90
5461;DHT22;2753;49.196;8.286;2023-06-24T00:43:33;21.30;78.10
5461;DHT22;2753;49.196;8.286;2023-06-24T00:45:59;21.30;77.80
5461;DHT22;2753;49.196;8.286;2023-06-24T00:48:24;21.30;77.90
5461;DHT22;2753;49.196;8.286;2023-06-24T00:50:50;21.20;77.80
5461;DHT22;2753;49.196;8.286;2023-06-24T00:53:18;21.10;78.10
5461;DHT22;2753;49.196;8.286;2023-06-24T00:55:44;21.10;78.40
5461;DHT22;2753;49.196;8.286;2023-06-24T00:58:11;21.10;78.70
5461;DHT22;2753;49.196;8.286;2023-06-24T01:00:44;20.90;79.20
5461;DHT22;2753;49.196;8.286;2023-06-24T01:03:11;20.90;79.60
5461;DHT22;2753;49.196;8.286;2023-06-24T01:05:43;20.90;79.70
5461;DHT22;2753;49.196;8.286;2023-06-24T01:08:10;20.80;80.10
5461;DHT22;2753;49.196;8.286;2023-06-24T01:10:41;20.80;80.20
5461;DHT22;2753;49.196;8.286;2023-06-24T01:13:07;20.90;80.10
5461;DHT22;2753;49.196;8.286;2023-06-24T01:15:34;20.80;81.00
5461;DHT22;2753;49.196;8.286;2023-06-24T01:21:10;20.70;80.40
5461;DHT22;2753;49.196;8.286;2023-06-24T01:26:34;20.60;80.90
5461;DHT22;2753;49.196;8.286;2023-06-24T01:29:27;20.70;80.40
5461;DHT22;2753;49.196;8.286;2023-06-24T01:35:20;20.70;79.90
5461;DHT22;2753;49.196;8.286;2023-06-24T01:37:49;20.60;80.40
5461;DHT22;2753;49.196;8.286;2023-06-24T01:40:37;20.60;79.90
5461;DHT22;2753;49.196;8.286;2023-06-24T01:43:07;20.40;80.20
5461;DHT22;2753;49.196;8.286;2023-06-24T01:45:40;20.40;80.40
5461;DHT22;2753;49.196;8.286;2023-06-24T01:48:07;20.30;80.60
5461;DHT22;2753;49.196;8.286;2023-06-24T01:50:36;20.20;80.70
5461;DHT22;2753;49.196;8.286;2023-06-24T01:53:07;20.20;80.90
5461;DHT22;2753;49.196;8.286;2023-06-24T01:55:34;20.30;80.90
5461;DHT22;2753;49.196;8.286;2023-06-24T01:58:03;20.20;80.70
5461;DHT22;2753;49.196;8.286;2023-06-24T02:00:32;20.20;80.90
5461;DHT22;2753;49.196;8.286;2023-06-24T02:02:58;20.20;80.80
5461;DHT22;2753;49.196;8.286;2023-06-24T02:05:25;20.30;80.70
5461;DHT22;2753;49.196;8.286;2023-06-24T02:07:52;20.40;80.40
5461;DHT22;2753;49.196;8.286;2023-06-24T02:10:19;20.30;80.90
5461;DHT22;2753;49.196;8.286;2023-06-24T02:12:49;20.30;81.00
5461;DHT22;2753;49.196;8.286;2023-06-24T02:15:17;20.10;81.30
5461;DHT22;2753;49.196;8.286;2023-06-24T02:17:44;20.10;81.60
5461;DHT22;2753;49.196;8.286;2023-06-24T02:20:11;20.00;82.00
5461;DHT22;2753;49.196;8.286;2023-06-24T02:22:38;20.00;82.20
5461;DHT22;2753;49.196;8.286;2023-06-24T02:25:05;19.90;82.50
5461;DHT22;2753;49.196;8.286;2023-06-24T02:27:32;19.90;82.70
5461;DHT22;2753;49.196;8.286;2023-06-24T02:30:00;19.80;82.60
5461;DHT22;2753;49.196;8.286;2023-06-24T02:32:25;19.80;82.30
5461;DHT22;2753;49.196;8.286;2023-06-24T02:34:51;19.90;81.80
5461;DHT22;2753;49.196;8.286;2023-06-24T02:37:17;19.90;81.70
5461;DHT22;2753;49.196;8.286;2023-06-24T02:39:42;19.80;82.00
5461;DHT22;2753;49.196;8.286;2023-06-24T02:42:10;19.30;81.90
5461;DHT22;2753;49.196;8.286;2023-06-24T02:44:40;19.80;82.00
5461;DHT22;2753;49.196;8.286;2023-06-24T02:47:09;19.70;82.20
5461;DHT22;2753;49.196;8.286;2023-06-24T02:49:37;19.70;82.00
5461;DHT22;2753;49.196;8.286;2023-06-24T02:52:04;19.70;82.30
5461;DHT22;2753;49.196;8.286;2023-06-24T02:54:31;19.70;82.30
5461;DHT22;2753;49.196;8.286;2023-06-24T02:56:57;19.70;82.10
5461;DHT22;2753;49.196;8.286;2023-06-24T02:59:24;19.70;82.20
5461;DHT22;2753;49.196;8.286;2023-06-24T03:01:51;19.70;82.10
5461;DHT22;2753;49.196;8.286;2023-06-24T03:04:18;19.70;82.00
5461;DHT22;2753;49.196;8.286;2023-06-24T03:06:44;19.60;82.50
5461;DHT22;2753;49.196;8.286;2023-06-24T03:09:10;19.60;82.40
5461;DHT22;2753;49.196;8.286;2023-06-24T03:11:44;19.50;83.20
5461;DHT22;2753;49.196;8.286;2023-06-24T03:14:10;19.60;82.40
5461;DHT22;2753;49.196;8.286;2023-06-24T03:16:36;19.60;82.60
5461;DHT22;2753;49.196;8.286;2023-06-24T03:19:06;19.50;82.80
5461;DHT22;2753;49.196;8.286;2023-06-24T03:21:32;19.50;82.70
5461;DHT22;2753;49.196;8.286;2023-06-24T03:23:58;19.50;82.70
5461;DHT22;2753;49.196;8.286;2023-06-24T03:26:32;19.50;83.10
5461;DHT22;2753;49.196;8.286;2023-06-24T03:28:58;19.50;83.20
5461;DHT22;2753;49.196;8.286;2023-06-24T03:31:24;19.50;83.80
5461;DHT22;2753;49.196;8.286;2023-06-24T03:33:49;19.40;84.10
5461;DHT22;2753;49.196;8.286;2023-06-24T03:36:15;19.40;84.00
5461;DHT22;2753;49.196;8.286;2023-06-24T03:38:41;19.40;84.00
5461;DHT22;2753;49.196;8.286;2023-06-24T03:41:07;19.40;84.10
5461;DHT22;2753;49.196;8.286;2023-06-24T03:43:32;19.30;84.10
5461;DHT22;2753;49.196;8.286;2023-06-24T03:45:58;19.30;84.00
5461;DHT22;2753;49.196;8.286;2023-06-24T03:48:25;19.80;84.60
5461;DHT22;2753;49.196;8.286;2023-06-24T03:50:51;19.40;83.80
5461;DHT22;2753;49.196;8.286;2023-06-24T03:53:16;19.30;84.00
5461;DHT22;2753;49.196;8.286;2023-06-24T03:55:42;19.30;84.00
5461;DHT22;2753;49.196;8.286;2023-06-24T03:58:08;19.30;84.50
5461;DHT22;2753;49.196;8.286;2023-06-24T04:00:34;19.20;84.80
5461;DHT22;2753;49.196;8.286;2023-06-24T04:03:01;19.10;85.40
5461;DHT22;2753;49.196;8.286;2023-06-24T04:05:27;19.10;85.30
5461;DHT22;2753;49.196;8.286;2023-06-24T04:07:53;19.10;85.30
5461;DHT22;2753;49.196;8.286;2023-06-24T04:10:19;19.10;85.40
5461;DHT22;2753;49.196;8.286;2023-06-24T04:12:45;19.20;85.10
5461;DHT22;2753;49.196;8.286;2023-06-24T04:15:11;19.20;85.00
5461;DHT22;2753;49.196;8.286;2023-06-24T04:17:37;19.20;85.20
5461;DHT22;2753;49.196;8.286;2023-06-24T04:20:03;19.10;85.40
5461;DHT22;2753;49.196;8.286;2023-06-24T04:22:32;19.10;85.30
5461;DHT22;2753;49.196;8.286;2023-06-24T04:24:58;19.10;85.50
5461;DHT22;2753;49.196;8.286;2023-06-24T04:27:23;19.10;85.80
5461;DHT22;2753;49.196;8.286;2023-06-24T04:29:49;19.00;86.00
5461;DHT22;2753;49.196;8.286;2023-06-24T04:32:15;18.90;86.60
5461;DHT22;2753;49.196;8.286;2023-06-24T04:34:40;18.90;86.80
5461;DHT22;2753;49.196;8.286;2023-06-24T04:37:06;19.00;86.50
5461;DHT22;2753;49.196;8.286;2023-06-24T04:39:32;19.00;86.60
5461;DHT22;2753;49.196;8.286;2023-06-24T04:41:58;19.00;87.30
5461;DHT22;2753;49.196;8.286;2023-06-24T04:44:24;19.00;87.40
5461;DHT22;2753;49.196;8.286;2023-06-24T04:46:49;19.10;87.00
5461;DHT22;2753;49.196;8.286;2023-06-24T04:49:17;19.20;86.90
5461;DHT22;2753;49.196;8.286;2023-06-24T04:51:43;19.20;87.10
5461;DHT22;2753;49.196;8.286;2023-06-24T04:54:08;19.20;87.90
5461;DHT22;2753;49.196;8.286;2023-06-24T04:56:34;19.20;87.60
5461;DHT22;2753;49.196;8.286;2023-06-24T04:59:01;19.20;87.60
5461;DHT22;2753;49.196;8.286;2023-06-24T05:01:26;19.30;87.90
5461;DHT22;2753;49.196;8.286;2023-06-24T05:03:52;19.30;88.20
5461;DHT22;2753;49.196;8.286;2023-06-24T05:06:18;19.30;88.10
5461;DHT22;2753;49.196;8.286;2023-06-24T05:08:43;19.30;87.80
5461;DHT22;2753;49.196;8.286;2023-06-24T05:11:09;19.30;88.60
5461;DHT22;2753;49.196;8.286;2023-06-24T05:13:35;19.30;88.40
5461;DHT22;2753;49.196;8.286;2023-06-24T05:16:00;19.30;89.10
5461;DHT22;2753;49.196;8.286;2023-06-24T05:18:26;19.40;88.30
5461;DHT22;2753;49.196;8.286;2023-06-24T05:20:52;19.40;88.50
5461;DHT22;2753;49.196;8.286;2023-06-24T05:23:18;19.50;88.90
5461;DHT22;2753;49.196;8.286;2023-06-24T05:25:43;19.40;88.70
5461;DHT22;2753;49.196;8.286;2023-06-24T05:28:09;19.50;88.80
5461;DHT22;2753;49.196;8.286;2023-06-24T05:30:35;19.40;88.40
5461;DHT22;2753;49.196;8.286;2023-06-24T05:33:00;19.50;89.20
5461;DHT22;2753;49.196;8.286;2023-06-24T05:35:26;19.40;89.10
5461;DHT22;2753;49.196;8.286;2023-06-24T05:37:52;19.50;88.90
5461;DHT22;2753;49.196;8.286;2023-06-24T05:40:17;19.50;88.70
5461;DHT22;2753;49.196;8.286;2023-06-24T05:42:43;19.50;89.10
5461;DHT22;2753;49.196;8.286;2023-06-24T05:45:09;19.50;89.00
5461;DHT22;2753;49.196;8.286;2023-06-24T05:47:34;19.50;89.30
5461;DHT22;2753;49.196;8.286;2023-06-24T05:50:00;19.50;89.30
5461;DHT22;2753;49.196;8.286;2023-06-24T05:52:26;19.50;89.10
5461;DHT22;2753;49.196;8.286;2023-06-24T05:54:54;19.60;88.60
5461;DHT22;2753;49.196;8.286;2023-06-24T05:57:19;19.60;88.80
5461;DHT22;2753;49.196;8.286;2023-06-24T05:59:45;19.70;89.10
5461;DHT22;2753;49.196;8.286;2023-06-24T06:02:11;19.70;88.90
5461;DHT22;2753;49.196;8.286;2023-06-24T06:04:38;19.70;89.10
5461;DHT22;2753;49.196;8.286;2023-06-24T06:07:03;19.70;89.30
5461;DHT22;2753;49.196;8.286;2023-06-24T06:09:29;19.70;89.20
5461;DHT22;2753;49.196;8.286;2023-06-24T06:11:55;19.70;89.30
5461;DHT22;2753;49.196;8.286;2023-06-24T06:14:20;19.80;89.50
5461;DHT22;2753;49.196;8.286;2023-06-24T06:16:46;19.70;89.10
5461;DHT22;2753;49.196;8.286;2023-06-24T06:19:12;19.80;89.00
5461;DHT22;2753;49.196;8.286;2023-06-24T06:21:38;19.90;88.40
5461;DHT22;2753;49.196;8.286;2023-06-24T06:24:04;19.90;87.90
5461;DHT22;2753;49.196;8.286;2023-06-24T06:26:30;20.10;87.90
5461;DHT22;2753;49.196;8.286;2023-06-24T06:28:56;20.10;87.20
5461;DHT22;2753;49.196;8.286;2023-06-24T06:31:21;20.20;87.80
5461;DHT22;2753;49.196;8.286;2023-06-24T06:33:48;20.20;87.80
5461;DHT22;2753;49.196;8.286;2023-06-24T06:36:14;20.30;88.40
5461;DHT22;2753;49.196;8.286;2023-06-24T06:38:40;20.30;88.60
5461;DHT22;2753;49.196;8.286;2023-06-24T06:41:06;20.30;88.00
5461;DHT22;2753;49.196;8.286;2023-06-24T06:43:33;20.40;87.80
5461;DHT22;2753;49.196;8.286;2023-06-24T06:45:59;20.40;87.80
5461;DHT22;2753;49.196;8.286;2023-06-24T06:48:24;20.50;87.40
5461;DHT22;2753;49.196;8.286;2023-06-24T06:50:50;20.60;87.40
5461;DHT22;2753;49.196;8.286;2023-06-24T06:53:17;20.60;87.20
5461;DHT22;2753;49.196;8.286;2023-06-24T06:55:43;20.80;87.20
5461;DHT22;2753;49.196;8.286;2023-06-24T06:58:09;21.00;87.60
5461;DHT22;2753;49.196;8.286;2023-06-24T07:00:35;21.20;87.00
5461;DHT22;2753;49.196;8.286;2023-06-24T07:03:00;21.40;86.70
5461;DHT22;2753;49.196;8.286;2023-06-24T07:05:26;21.60;86.70
5461;DHT22;2753;49.196;8.286;2023-06-24T07:07:52;21.80;86.00
5461;DHT22;2753;49.196;8.286;2023-06-24T07:10:19;21.90;85.60
5461;DHT22;2753;49.196;8.286;2023-06-24T07:12:45;22.00;85.00
5461;DHT22;2753;49.196;8.286;2023-06-24T07:15:11;22.10;84.80
5461;DHT22;2753;49.196;8.286;2023-06-24T07:17:36;22.20;85.00
5461;DHT22;2753;49.196;8.286;2023-06-24T07:20:02;22.40;85.20
5461;DHT22;2753;49.196;8.286;2023-06-24T07:22:28;22.50;84.70
5461;DHT22;2753;49.196;8.286;2023-06-24T07:24:56;22.70;83.90
5461;DHT22;2753;49.196;8.286;2023-06-24T07:27:22;22.90;83.70
5461;DHT22;2753;49.196;8.286;2023-06-24T07:29:47;23.10;83.70
5461;DHT22;2753;49.196;8.286;2023-06-24T07:32:13;23.30;82.70
5461;DHT22;2753;49.196;8.286;2023-06-24T07:34:39;23.30;82.80
5461;DHT22;2753;49.196;8.286;2023-06-24T07:37:04;23.50;81.90
5461;DHT22;2753;49.196;8.286;2023-06-24T07:39:30;23.60;82.00
5461;DHT22;2753;49.196;8.286;2023-06-24T07:41:55;23.80;81.50
5461;DHT22;2753;49.196;8.286;2023-06-24T07:44:21;24.10;81.60
5461;DHT22;2753;49.196;8.286;2023-06-24T07:46:47;24.20;80.40
5461;DHT22;2753;49.196;8.286;2023-06-24T07:49:14;24.30;80.40
5461;DHT22;2753;49.196;8.286;2023-06-24T07:51:39;24.50;79.70
5461;DHT22;2753;49.196;8.286;2023-06-24T07:54:05;24.70;78.80
5461;DHT22;2753;49.196;8.286;2023-06-24T07:56:31;25.00;78.80
5461;DHT22;2753;49.196;8.286;2023-06-24T07:58:56;25.30;78.10
5461;DHT22;2753;49.196;8.286;2023-06-24T08:01:22;25.40;77.70
5461;DHT22;2753;49.196;8.286;2023-06-24T08:03:48;25.70;76.80
5461;DHT22;2753;49.196;8.286;2023-06-24T08:06:14;25.60;74.80
5461;DHT22;2753;49.196;8.286;2023-06-24T08:08:39;25.50;74.90
5461;DHT22;2753;49.196;8.286;2023-06-24T08:11:05;25.40;75.50
5461;DHT22;2753;49.196;8.286;2023-06-24T08:13:30;25.70;76.30
5461;DHT22;2753;49.196;8.286;2023-06-24T08:15:56;26.10;74.10
5461;DHT22;2753;49.196;8.286;2023-06-24T08:18:22;26.30;73.90
5461;DHT22;2753;49.196;8.286;2023-06-24T08:20:48;26.50;73.40
5461;DHT22;2753;49.196;8.286;2023-06-24T08:23:14;26.70;70.50
5461;DHT22;2753;49.196;8.286;2023-06-24T08:25:39;27.00;69.80
5461;DHT22;2753;49.196;8.286;2023-06-24T08:28:05;27.10;68.50
5461;DHT22;2753;49.196;8.286;2023-06-24T08:30:31;27.00;70.00
5461;DHT22;2753;49.196;8.286;2023-06-24T08:32:58;26.80;69.20
5461;DHT22;2753;49.196;8.286;2023-06-24T08:35:24;26.90;69.10
5461;DHT22;2753;49.196;8.286;2023-06-24T08:37:49;27.00;70.00
5461;DHT22;2753;49.196;8.286;2023-06-24T08:40:15;27.10;69.50
5461;DHT22;2753;49.196;8.286;2023-06-24T08:42:43;27.00;65.70
5461;DHT22;2753;49.196;8.286;2023-06-24T08:45:10;27.30;68.20
5461;DHT22;2753;49.196;8.286;2023-06-24T08:47:36;27.80;67.80
5461;DHT22;2753;49.196;8.286;2023-06-24T08:50:13;27.90;68.20
5461;DHT22;2753;49.196;8.286;2023-06-24T08:52:42;27.90;67.00
5461;DHT22;2753;49.196;8.286;2023-06-24T08:55:13;27.90;61.90
5461;DHT22;2753;49.196;8.286;2023-06-24T08:57:41;28.00;61.20
5461;DHT22;2753;49.196;8.286;2023-06-24T09:00:07;28.00;61.80
5461;DHT22;2753;49.196;8.286;2023-06-24T09:02:37;27.80;62.60
5461;DHT22;2753;49.196;8.286;2023-06-24T09:05:05;27.80;63.40
5461;DHT22;2753;49.196;8.286;2023-06-24T09:07:31;27.70;62.60
5461;DHT22;2753;49.196;8.286;2023-06-24T09:09:57;28.10;61.30
5461;DHT22;2753;49.196;8.286;2023-06-24T09:12:24;28.20;60.20
5461;DHT22;2753;49.196;8.286;2023-06-24T09:14:50;28.00;61.40
5461;DHT22;2753;49.196;8.286;2023-06-24T09:17:17;28.30;62.80
5461;DHT22;2753;49.196;8.286;2023-06-24T09:19:43;28.40;61.70
5461;DHT22;2753;49.196;8.286;2023-06-24T09:22:10;28.20;61.80
5461;DHT22;2753;49.196;8.286;2023-06-24T09:24:44;28.30;62.70
5461;DHT22;2753;49.196;8.286;2023-06-24T09:27:15;28.20;58.60
5461;DHT22;2753;49.196;8.286;2023-06-24T09:29:43;28.30;59.70
5461;DHT22;2753;49.196;8.286;2023-06-24T09:32:09;28.20;58.30
5461;DHT22;2753;49.196;8.286;2023-06-24T09:34:35;28.10;59.90
5461;DHT22;2753;49.196;8.286;2023-06-24T09:37:01;27.90;59.50
5461;DHT22;2753;49.196;8.286;2023-06-24T09:39:28;27.70;60.00
5461;DHT22;2753;49.196;8.286;2023-06-24T09:42:01;27.70;59.90
5461;DHT22;2753;49.196;8.286;2023-06-24T09:44:28;27.60;60.80
5461;DHT22;2753;49.196;8.286;2023-06-24T09:46:54;27.70;61.10
5461;DHT22;2753;49.196;8.286;2023-06-24T09:49:21;27.50;61.00
5461;DHT22;2753;49.196;8.286;2023-06-24T09:51:53;27.60;60.40
5461;DHT22;2753;49.196;8.286;2023-06-24T09:54:20;27.70;60.80
5461;DHT22;2753;49.196;8.286;2023-06-24T09:56:49;27.90;60.30
5461;DHT22;2753;49.196;8.286;2023-06-24T09:59:15;27.80;60.30
5461;DHT22;2753;49.196;8.286;2023-06-24T10:01:44;27.70;60.20
5461;DHT22;2753;49.196;8.286;2023-06-24T10:04:17;27.70;60.00
5461;DHT22;2753;49.196;8.286;2023-06-24T10:06:43;27.70;61.00
5461;DHT22;2753;49.196;8.286;2023-06-24T10:09:09;27.90;60.60
5461;DHT22;2753;49.196;8.286;2023-06-24T10:11:36;27.90;60.10
5461;DHT22;2753;49.196;8.286;2023-06-24T10:14:01;27.90;60.60
5461;DHT22;2753;49.196;8.286;2023-06-24T10:16:27;27.70;60.80
5461;DHT22;2753;49.196;8.286;2023-06-24T10:19:03;27.70;61.20
5461;DHT22;2753;49.196;8.286;2023-06-24T10:21:52;27.60;60.70
5461;DHT22;2753;49.196;8.286;2023-06-24T10:24:32;27.70;60.40
5461;DHT22;2753;49.196;8.286;2023-06-24T10:27:09;27.80;59.20
5461;DHT22;2753;49.196;8.286;2023-06-24T10:29:39;27.80;59.40
5461;DHT22;2753;49.196;8.286;2023-06-24T10:32:08;27.70;59.90
5461;DHT22;2753;49.196;8.286;2023-06-24T10:39:54;27.50;60.70
5461;DHT22;2753;49.196;8.286;2023-06-24T10:44:54;27.50;60.60
5461;DHT22;2753;49.196;8.286;2023-06-24T10:47:21;27.50;61.00
5461;DHT22;2753;49.196;8.286;2023-06-24T10:49:47;27.60;61.50
5461;DHT22;2753;49.196;8.286;2023-06-24T10:52:13;27.70;61.60
5461;DHT22;2753;49.196;8.286;2023-06-24T10:54:40;27.70;61.80
5461;DHT22;2753;49.196;8.286;2023-06-24T10:57:07;27.70;61.20
5461;DHT22;2753;49.196;8.286;2023-06-24T11:02:07;27.80;61.50
5461;DHT22;2753;49.196;8.286;2023-06-24T11:04:32;27.50;60.20
5461;DHT22;2753;49.196;8.286;2023-06-24T11:06:59;27.40;61.60
5461;DHT22;2753;49.196;8.286;2023-06-24T11:09:25;27.20;62.20
5461;DHT22;2753;49.196;8.286;2023-06-24T11:11:51;27.40;62.70
5461;DHT22;2753;49.196;8.286;2023-06-24T11:14:17;27.50;61.40
5461;DHT22;2753;49.196;8.286;2023-06-24T11:16:45;27.60;60.80
5461;DHT22;2753;49.196;8.286;2023-06-24T11:19:11;27.40;59.80
5461;DHT22;2753;49.196;8.286;2023-06-24T11:21:36;27.40;60.00
5461;DHT22;2753;49.196;8.286;2023-06-24T11:24:05;27.40;60.00
5461;DHT22;2753;49.196;8.286;2023-06-24T11:26:32;27.30;60.50
5461;DHT22;2753;49.196;8.286;2023-06-24T11:28:58;27.30;60.60
5461;DHT22;2753;49.196;8.286;2023-06-24T11:31:27;27.30;59.50
5461;DHT22;2753;49.196;8.286;2023-06-24T11:33:53;27.40;60.40
5461;DHT22;2753;49.196;8.286;2023-06-24T11:36:20;27.50;59.50
5461;DHT22;2753;49.196;8.286;2023-06-24T11:38:46;27.50;59.80
5461;DHT22;2753;49.196;8.286;2023-06-24T11:41:12;27.60;59.30
5461;DHT22;2753;49.196;8.286;2023-06-24T11:43:46;27.40;58.20
5461;DHT22;2753;49.196;8.286;2023-06-24T11:46:28;27.30;59.00
5461;DHT22;2753;49.196;8.286;2023-06-24T11:49:05;27.50;59.50
5461;DHT22;2753;49.196;8.286;2023-06-24T11:51:32;27.60;59.20
5461;DHT22;2753;49.196;8.286;2023-06-24T11:54:05;27.50;57.70
5461;DHT22;2753;49.196;8.286;2023-06-24T11:56:41;27.50;59.20
5461;DHT22;2753;49.196;8.286;2023-06-24T12:01:44;27.40;57.80
5461;DHT22;2753;49.196;8.286;2023-06-24T12:04:13;27.40;59.30
5461;DHT22;2753;49.196;8.286;2023-06-24T12:06:40;27.30;59.20
5461;DHT22;2753;49.196;8.286;2023-06-24T12:09:07;27.30;59.50
5461;DHT22;2753;49.196;8.286;2023-06-24T12:11:32;27.40;59.70
5461;DHT22;2753;49.196;8.286;2023-06-24T12:13:58;27.50;60.00
5461;DHT22;2753;49.196;8.286;2023-06-24T12:16:24;27.60;59.30
5461;DHT22;2753;49.196;8.286;2023-06-24T12:18:51;27.60;58.40
5461;DHT22;2753;49.196;8.286;2023-06-24T12:21:17;27.70;58.20
5461;DHT22;2753;49.196;8.286;2023-06-24T12:23:43;27.70;58.40
5461;DHT22;2753;49.196;8.286;2023-06-24T12:26:09;27.60;58.90
5461;DHT22;2753;49.196;8.286;2023-06-24T12:28:34;27.60;58.80
5461;DHT22;2753;49.196;8.286;2023-06-24T12:31:00;27.60;58.00
5461;DHT22;2753;49.196;8.286;2023-06-24T12:33:29;27.60;58.30
5461;DHT22;2753;49.196;8.286;2023-06-24T12:35:55;27.60;58.40
5461;DHT22;2753;49.196;8.286;2023-06-24T12:38:21;27.70;58.70
5461;DHT22;2753;49.196;8.286;2023-06-24T12:40:46;27.70;59.30
5461;DHT22;2753;49.196;8.286;2023-06-24T12:43:14;27.80;58.80
5461;DHT22;2753;49.196;8.286;2023-06-24T12:45:40;27.70;58.90
5461;DHT22;2753;49.196;8.286;2023-06-24T12:48:09;27.80;58.70
5461;DHT22;2753;49.196;8.286;2023-06-24T12:50:35;27.80;59.00
5461;DHT22;2753;49.196;8.286;2023-06-24T12:53:01;27.80;58.90
5461;DHT22;2753;49.196;8.286;2023-06-24T12:55:27;27.80;59.20
5461;DHT22;2753;49.196;8.286;2023-06-24T12:57:53;27.90;59.10
5461;DHT22;2753;49.196;8.286;2023-06-24T13:00:23;27.80;58.50
5461;DHT22;2753;49.196;8.286;2023-06-24T13:02:50;27.80;58.50
5461;DHT22;2753;49.196;8.286;2023-06-24T13:05:17;27.70;59.00
5461;DHT22;2753;49.196;8.286;2023-06-24T13:07:43;27.70;59.10
5461;DHT22;2753;49.196;8.286;2023-06-24T13:10:09;27.70;58.00
5461;DHT22;2753;49.196;8.286;2023-06-24T13:12:35;27.70;57.40
5461;DHT22;2753;49.196;8.286;2023-06-24T13:15:02;27.70;57.30
5461;DHT22;2753;49.196;8.286;2023-06-24T13:17:30;27.70;57.70
5461;DHT22;2753;49.196;8.286;2023-06-24T13:19:56;27.80;57.30
5461;DHT22;2753;49.196;8.286;2023-06-24T13:22:22;27.80;57.20
5461;DHT22;2753;49.196;8.286;2023-06-24T13:24:47;27.80;57.20
5461;DHT22;2753;49.196;8.286;2023-06-24T13:27:13;27.90;57.00
5461;DHT22;2753;49.196;8.286;2023-06-24T13:29:39;27.80;57.10
5461;DHT22;2753;49.196;8.286;2023-06-24T13:32:05;27.90;57.20
5461;DHT22;2753;49.196;8.286;2023-06-24T13:34:31;27.90;56.50
5461;DHT22;2753;49.196;8.286;2023-06-24T13:36:56;27.90;57.40
5461;DHT22;2753;49.196;8.286;2023-06-24T13:39:22;27.80;56.50
5461;DHT22;2753;49.196;8.286;2023-06-24T13:41:49;27.80;56.20
5461;DHT22;2753;49.196;8.286;2023-06-24T13:44:15;27.80;56.00
5461;DHT22;2753;49.196;8.286;2023-06-24T13:46:42;27.80;55.50
5461;DHT22;2753;49.196;8.286;2023-06-24T13:49:08;27.80;55.50
5461;DHT22;2753;49.196;8.286;2023-06-24T13:51:34;27.90;55.70
5461;DHT22;2753;49.196;8.286;2023-06-24T13:54:00;27.90;53.70
5461;DHT22;2753;49.196;8.286;2023-06-24T13:56:26;27.90;53.30
5461;DHT22;2753;49.196;8.286;2023-06-24T13:58:53;27.90;53.10
5461;DHT22;2753;49.196;8.286;2023-06-24T14:01:19;27.90;52.80
5461;DHT22;2753;49.196;8.286;2023-06-24T14:03:45;28.00;53.80
5461;DHT22;2753;49.196;8.286;2023-06-24T14:06:14;28.10;54.40
5461;DHT22;2753;49.196;8.286;2023-06-24T14:08:40;28.20;53.90
5461;DHT22;2753;49.196;8.286;2023-06-24T14:11:06;28.20;53.80
5461;DHT22;2753;49.196;8.286;2023-06-24T14:13:32;28.10;53.50
5461;DHT22;2753;49.196;8.286;2023-06-24T14:15:58;28.10;54.20
5461;DHT22;2753;49.196;8.286;2023-06-24T14:18:24;28.10;54.60
5461;DHT22;2753;49.196;8.286;2023-06-24T14:20:51;28.20;53.30
5461;DHT22;2753;49.196;8.286;2023-06-24T14:23:16;28.20;53.80
5461;DHT22;2753;49.196;8.286;2023-06-24T14:25:42;28.10;53.10
5461;DHT22;2753;49.196;8.286;2023-06-24T14:28:08;28.20;53.40
5461;DHT22;2753;49.196;8.286;2023-06-24T14:30:34;28.10;53.60
5461;DHT22;2753;49.196;8.286;2023-06-24T14:33:02;28.20;53.70
5461;DHT22;2753;49.196;8.286;2023-06-24T14:35:28;28.20;53.70
5461;DHT22;2753;49.196;8.286;2023-06-24T14:37:53;28.20;53.50
5461;DHT22;2753;49.196;8.286;2023-06-24T14:40:19;28.10;52.60
5461;DHT22;2753;49.196;8.286;2023-06-24T14:42:45;28.20;53.50
5461;DHT22;2753;49.196;8.286;2023-06-24T14:45:10;28.20;53.20
5461;DHT22;2753;49.196;8.286;2023-06-24T14:47:36;28.20;52.90
5461;DHT22;2753;49.196;8.286;2023-06-24T14:50:03;28.20;53.30
5461;DHT22;2753;49.196;8.286;2023-06-24T14:52:29;28.20;53.00
5461;DHT22;2753;49.196;8.286;2023-06-24T14:54:55;28.20;53.50
5461;DHT22;2753;49.196;8.286;2023-06-24T14:57:21;28.20;54.00
5461;DHT22;2753;49.196;8.286;2023-06-24T14:59:49;28.30;53.90
5461;DHT22;2753;49.196;8.286;2023-06-24T15:02:14;28.30;53.90
5461;DHT22;2753;49.196;8.286;2023-06-24T15:04:40;28.30;53.80
5461;DHT22;2753;49.196;8.286;2023-06-24T15:07:06;28.20;54.40
5461;DHT22;2753;49.196;8.286;2023-06-24T15:09:32;28.30;54.50
5461;DHT22;2753;49.196;8.286;2023-06-24T15:11:59;28.30;54.30
5461;DHT22;2753;49.196;8.286;2023-06-24T15:14:25;28.30;54.40
5461;DHT22;2753;49.196;8.286;2023-06-24T15:16:51;28.30;54.60
5461;DHT22;2753;49.196;8.286;2023-06-24T15:19:19;28.30;54.50
5461;DHT22;2753;49.196;8.286;2023-06-24T15:21:45;28.30;54.30
5461;DHT22;2753;49.196;8.286;2023-06-24T15:24:10;28.30;54.00
5461;DHT22;2753;49.196;8.286;2023-06-24T15:26:36;28.30;54.50
5461;DHT22;2753;49.196;8.286;2023-06-24T15:29:02;28.30;54.00
5461;DHT22;2753;49.196;8.286;2023-06-24T15:31:27;28.30;54.10
5461;DHT22;2753;49.196;8.286;2023-06-24T15:33:53;28.30;54.40
5461;DHT22;2753;49.196;8.286;2023-06-24T15:36:20;28.40;54.50
5461;DHT22;2753;49.196;8.286;2023-06-24T15:38:47;28.40;54.60
5461;DHT22;2753;49.196;8.286;2023-06-24T15:41:13;28.30;54.20
5461;DHT22;2753;49.196;8.286;2023-06-24T15:43:40;28.30;55.00
5461;DHT22;2753;49.196;8.286;2023-06-24T15:46:06;28.20;54.60
5461;DHT22;2753;49.196;8.286;2023-06-24T15:48:32;28.30;54.70
5461;DHT22;2753;49.196;8.286;2023-06-24T15:50:57;28.20;53.90
5461;DHT22;2753;49.196;8.286;2023-06-24T15:53:25;28.20;54.60
5461;DHT22;2753;49.196;8.286;2023-06-24T15:55:51;28.20;54.80
5461;DHT22;2753;49.196;8.286;2023-06-24T15:58:16;28.20;54.60
5461;DHT22;2753;49.196;8.286;2023-06-24T16:00:42;28.20;54.90
5461;DHT22;2753;49.196;8.286;2023-06-24T16:03:08;28.20;55.10
5461;DHT22;2753;49.196;8.286;2023-06-24T16:05:34;28.20;55.20
5461;DHT22;2753;49.196;8.286;2023-06-24T16:08:00;28.20;55.30
5461;DHT22;2753;49.196;8.286;2023-06-24T16:10:25;28.30;55.10
5461;DHT22;2753;49.196;8.286;2023-06-24T16:12:51;28.30;54.90
5461;DHT22;2753;49.196;8.286;2023-06-24T16:15:17;28.30;54.90
5461;DHT22;2753;49.196;8.286;2023-06-24T16:17:43;28.30;54.90
5461;DHT22;2753;49.196;8.286;2023-06-24T16:20:09;28.30;54.80
5461;DHT22;2753;49.196;8.286;2023-06-24T16:22:39;28.30;55.00